Archival Weather

Norman Y Mineta San Jose Intl

San Jose, California (KSJC)

Report from: Tuesday, February 20, 2024 11:53 AM PST
Current time: Monday, June 24, 2024 3:52 AM PDT

Current weather – Weather history – Daily summaries
Weather forecast

Temperature17.2°C (63.0°F)
Dew point6.7°C (44.1°F)
Winds 12 kts (6.2 m/s, 13.8 mph) South-Southeast (150°)
Visibility10 mi. (16.1 km)
Clouds Few clouds 3,200 ft. (975 m)
Ceiling: Broken clouds 8,000 ft. (2,438 m)
Overcast 11,000 ft. (3,353 m)
Altimeter30.04 in.Hg (1017 mB)
Relative humidity50 %
Density altitude272 ft. (83 m)
Sea-level pressure101.7 kPa (1017 mB, 30.04 in.Hg)
Remarks Automated weather observing station with precipitation discriminator
Towering cumulus clouds observed distant southeast
Flight conditions Visual Meteorological Conditions
Raw dataKSJC 201953Z 15012KT 10SM FEW032 BKN080 OVC110 17/07 A3004 RMK AO2 SLP171 TCU DSNT SE T01720067
An error has occurred. This application may no longer respond until reloaded. Reload 🗙